createdAt,value
2018-04-17T04:09:07.718Z,85.94
2018-04-17T04:09:33.216Z,86.47
2018-04-17T04:09:58.692Z,86.18
2018-04-17T04:10:24.261Z,86.28
2018-04-17T04:10:49.756Z,86.13
2018-04-17T04:11:15.245Z,86.04
2018-04-17T04:11:40.740Z,86.32
2018-04-17T04:12:06.277Z,86.28
2018-04-17T04:12:31.766Z,85.94
2018-04-17T04:12:57.243Z,86.09
2018-04-17T04:13:22.759Z,86.09
2018-04-17T04:13:48.239Z,85.99
2018-04-17T04:14:14.017Z,86.13
2018-04-17T04:14:39.441Z,86.09
2018-04-17T04:15:04.943Z,86.38
2018-04-17T04:15:30.447Z,86.51
2018-04-17T04:15:55.948Z,86.47
2018-04-17T04:16:21.429Z,86.28
2018-04-17T04:16:46.895Z,86.57
2018-04-17T04:17:12.364Z,86.09
2018-04-17T04:17:37.829Z,86.94
2018-04-17T04:18:03.292Z,86.94
2018-04-17T04:18:28.771Z,86.61
2018-04-17T04:18:54.253Z,86.7
2018-04-17T04:19:19.698Z,86.7
2018-04-17T04:19:45.175Z,86.42
2018-04-17T04:20:10.647Z,86.42
2018-04-17T04:20:36.427Z,86.7
2018-04-17T04:21:01.908Z,86.22
2018-04-17T04:21:27.403Z,86.99
2018-04-17T04:21:53.062Z,86.57
2018-04-17T04:22:18.710Z,86.61
2018-04-17T04:22:44.260Z,86.51
2018-04-17T04:23:09.809Z,86.8
2018-04-17T04:23:35.319Z,86.8
2018-04-17T04:24:00.812Z,86.22
2018-04-17T04:24:26.328Z,86.61
2018-04-17T04:24:51.830Z,86.51
2018-04-17T04:25:17.387Z,86.8
2018-04-17T04:25:42.786Z,86.9
2018-04-17T04:26:08.288Z,86.28
2018-04-17T04:26:33.785Z,85.9
2018-04-17T04:26:59.236Z,86.22
2018-04-17T04:27:24.781Z,86.04
2018-04-17T04:27:50.226Z,86.09
2018-04-17T04:28:15.959Z,86.09
2018-04-17T04:28:41.584Z,86.04
2018-04-17T04:29:07.069Z,86.18
2018-04-17T04:29:32.579Z,86.18
2018-04-17T04:29:58.093Z,86.18
2018-04-17T04:30:23.611Z,85.99
2018-04-17T04:30:49.081Z,86.18
2018-04-17T04:31:14.576Z,86.09
2018-04-17T04:31:40.309Z,86.18
2018-04-17T04:32:05.937Z,86.28
2018-04-17T04:32:31.502Z,86.18
2018-04-17T04:32:57.169Z,86.76
2018-04-17T04:33:22.785Z,86.85
2018-04-17T04:33:48.449Z,86.38
2018-04-17T04:34:14.281Z,86.85
2018-04-17T04:34:39.918Z,86.18
2018-04-17T04:35:05.669Z,86.28
2018-04-17T04:35:32.145Z,86.09
2018-04-17T04:35:57.858Z,86.18
2018-04-17T04:36:23.605Z,85.8
2018-04-17T04:36:49.221Z,86.18
2018-04-17T04:37:15.229Z,85.99
2018-04-17T04:37:40.773Z,86.28
2018-04-17T04:38:06.181Z,86.28
2018-04-17T04:38:31.892Z,86.09
2018-04-17T04:38:57.348Z,86.28
2018-04-17T04:39:23.165Z,86.76
2018-04-17T04:39:49.048Z,86.57
2018-04-17T04:40:14.661Z,86.47
2018-04-17T04:40:40.443Z,86.57
2018-04-17T04:41:05.931Z,86.76
2018-04-17T04:41:31.500Z,86.18
2018-04-17T04:41:57.006Z,86.66
2018-04-17T04:42:22.793Z,86.66
2018-04-17T04:42:49.045Z,86.18
2018-04-17T04:43:14.828Z,86.57
2018-04-17T04:43:40.673Z,86.66
2018-04-17T04:44:06.233Z,86.66
2018-04-17T04:44:31.671Z,86.7
2018-04-17T04:44:57.407Z,86.85
2018-04-17T04:45:22.936Z,86.85
2018-04-17T04:45:48.466Z,86.76
2018-04-17T04:46:14.041Z,86.66
2018-04-17T04:46:39.733Z,86.66
2018-04-17T04:47:05.638Z,86.76
2018-04-17T04:47:31.336Z,87.23
2018-04-17T04:47:56.803Z,86.85
2018-04-17T04:48:22.359Z,86.7
2018-04-17T04:48:47.880Z,87.13
2018-04-17T04:49:13.480Z,86.99
2018-04-17T04:49:39.087Z,87.32
2018-04-17T04:50:04.909Z,87.08
2018-04-17T04:50:30.875Z,87.08
2018-04-17T04:50:57.173Z,87.27
2018-04-17T04:51:22.891Z,86.61
2018-04-17T04:51:48.649Z,87.08
2018-04-17T04:52:14.186Z,87.85
2018-04-17T04:52:39.632Z,87.46
2018-04-17T04:53:05.142Z,87.65
2018-04-17T04:53:30.587Z,87.46
2018-04-17T04:53:56.076Z,87.46
2018-04-17T04:54:21.463Z,87.46
2018-04-17T04:54:46.980Z,87.18
2018-04-17T04:55:12.470Z,87.27
2018-04-17T04:55:38.002Z,87.37
2018-04-17T04:56:03.532Z,87.37
2018-04-17T04:56:29.051Z,87.56
2018-04-17T04:56:54.511Z,87.56
2018-04-17T04:57:19.962Z,87.37
2018-04-17T04:57:45.432Z,87.65
2018-04-17T04:58:10.891Z,87.65
2018-04-17T04:58:36.410Z,87.65
2018-04-17T04:59:01.932Z,87.65
2018-04-17T04:59:27.492Z,87.37
2018-04-17T04:59:52.920Z,87.46
2018-04-17T05:00:18.403Z,86.99
2018-04-17T05:00:43.849Z,87.27
2018-04-17T05:01:09.313Z,87.37
2018-04-17T05:01:34.805Z,87.27
2018-04-17T05:02:00.228Z,87.46
2018-04-17T05:02:25.721Z,87.27
2018-04-17T05:02:51.171Z,86.99
2018-04-17T05:03:16.738Z,87.18
2018-04-17T05:03:42.199Z,87.18
2018-04-17T05:04:07.675Z,87.27
2018-04-17T05:04:33.140Z,87.18
2018-04-17T05:04:58.669Z,87.18
2018-04-17T05:05:24.174Z,86.9
2018-04-17T05:05:49.703Z,87.18
2018-04-17T05:06:15.231Z,86.8
2018-04-17T05:06:40.733Z,87.18
2018-04-17T05:07:06.208Z,87.37
2018-04-17T05:07:31.655Z,87.37
2018-04-17T05:07:57.175Z,87.18
2018-04-17T05:08:22.788Z,87.27
2018-04-17T05:08:48.186Z,87.46
2018-04-17T05:09:13.691Z,87.46
2018-04-17T05:09:39.197Z,87.08
2018-04-17T05:10:04.633Z,86.99
2018-04-17T05:10:30.135Z,87.46
2018-04-17T05:10:55.555Z,87.56
2018-04-17T05:11:21.086Z,87.65
2018-04-17T05:11:46.516Z,87.37
2018-04-17T05:12:12.032Z,87.37
2018-04-17T05:12:37.428Z,87.56
2018-04-17T05:13:02.964Z,87.56
2018-04-17T05:13:28.417Z,87.46
2018-04-17T05:13:53.826Z,87.18
2018-04-17T05:14:19.300Z,87.85
2018-04-17T05:14:44.778Z,87.27
2018-04-17T05:15:10.264Z,88.04
2018-04-17T05:15:35.698Z,87.37
2018-04-17T05:16:01.171Z,87.37
2018-04-17T05:16:26.697Z,87.08
2018-04-17T05:16:52.190Z,87.27
2018-04-17T05:17:17.706Z,87.37
2018-04-17T05:17:43.277Z,87.08
2018-04-17T05:18:08.743Z,87.37
2018-04-17T05:18:34.191Z,87.37
2018-04-17T05:18:59.656Z,87.08
2018-04-17T05:19:25.175Z,87.08
2018-04-17T05:19:50.642Z,87.65
2018-04-17T05:20:16.106Z,87.46
2018-04-17T05:20:41.557Z,88.13
2018-04-17T05:21:06.994Z,87.27
2018-04-17T05:21:32.508Z,87.32
2018-04-17T05:21:57.954Z,87.46
2018-04-17T05:22:23.432Z,87.32
2018-04-17T05:22:48.984Z,88.18
2018-04-17T05:23:14.466Z,88.08
2018-04-17T05:23:39.906Z,88.08
2018-04-17T05:24:05.557Z,87.32
2018-04-17T05:24:31.004Z,87.79
2018-04-17T05:24:56.568Z,87.6
2018-04-17T05:25:22.104Z,87.13
2018-04-17T05:25:47.549Z,87.89
2018-04-17T05:26:13.010Z,87.51
2018-04-17T05:26:38.557Z,87.51
2018-04-17T05:27:04.035Z,87.79
2018-04-17T05:27:29.685Z,87.6
2018-04-17T05:27:55.235Z,87.6
2018-04-17T05:28:20.745Z,87.23
2018-04-17T05:28:46.217Z,87.32
2018-04-17T05:29:11.655Z,87.32
2018-04-17T05:29:37.101Z,87.6
2018-04-17T05:30:02.549Z,87.32
2018-04-17T05:30:28.008Z,87.41
2018-04-17T05:30:53.461Z,87.7
2018-04-17T05:31:18.960Z,87.79
2018-04-17T05:31:44.494Z,87.6
2018-04-17T05:32:09.896Z,87.51
2018-04-17T05:32:35.391Z,87.7
2018-04-17T05:33:00.818Z,87.13
2018-04-17T05:33:26.341Z,87.6
2018-04-17T05:33:51.799Z,87.32
2018-04-17T05:34:17.427Z,87.32
2018-04-17T05:34:42.794Z,87.23
2018-04-17T05:35:08.279Z,86.75
2018-04-17T05:35:33.747Z,87.23
2018-04-17T05:35:59.223Z,87.03
2018-04-17T05:36:24.668Z,86.88
2018-04-17T05:36:50.166Z,86.88
2018-04-17T05:37:15.662Z,86.51
2018-04-17T05:37:41.129Z,86.88
2018-04-17T05:38:06.622Z,86.12
2018-04-17T05:38:32.049Z,86.32
2018-04-17T05:38:57.446Z,85.74
2018-04-17T05:39:23.019Z,86.41
2018-04-17T05:39:48.491Z,85.93
2018-04-17T05:40:13.962Z,86.12
2018-04-17T05:40:39.402Z,85.55
2018-04-17T05:41:04.875Z,85.84
2018-04-17T05:41:30.314Z,85.21
2018-04-17T05:41:55.813Z,85.12
2018-04-17T05:42:21.276Z,84.74
2018-04-17T05:42:46.722Z,85.12
2018-04-17T05:43:12.138Z,85.02
2018-04-17T05:43:37.693Z,85.12
2018-04-17T05:44:03.126Z,84.74
2018-04-17T05:44:28.614Z,84.45
2018-04-17T05:44:54.080Z,84.74
2018-04-17T05:45:19.503Z,84.64
2018-04-17T05:45:44.993Z,84.36
2018-04-17T05:46:10.482Z,84.26
2018-04-17T05:46:35.896Z,83.97
2018-04-17T05:47:01.328Z,83.97
2018-04-17T05:47:26.801Z,83.78
2018-04-17T05:47:52.306Z,83.97
2018-04-17T05:48:17.734Z,84.3
2018-04-17T05:48:43.187Z,83.5
2018-04-17T05:49:08.761Z,83.4
2018-04-17T05:49:34.189Z,83.25
2018-04-17T05:49:59.670Z,83.73
2018-04-17T05:50:25.167Z,83.54
2018-04-17T05:50:50.694Z,83.35
2018-04-17T05:51:16.110Z,83.16
2018-04-17T05:51:41.553Z,82.49
2018-04-17T05:52:07.077Z,81.92
2018-04-17T05:52:32.520Z,82.11
2018-04-17T05:52:58.054Z,81.82
2018-04-17T05:53:23.400Z,81.92
2018-04-17T05:53:48.845Z,82.01
2018-04-17T05:54:14.324Z,82.11
2018-04-17T05:54:39.749Z,82.01
2018-04-17T05:55:05.254Z,82.11
2018-04-17T05:55:30.677Z,82.11
2018-04-17T05:55:56.389Z,82.01
2018-04-17T05:56:21.611Z,82.2
2018-04-17T05:56:47.050Z,82.01
2018-04-17T05:57:12.609Z,82.2
2018-04-17T05:57:37.998Z,81.35
2018-04-17T05:58:03.463Z,81.54
2018-04-17T05:58:29.091Z,82.01
2018-04-17T05:58:54.497Z,81.35
2018-04-17T05:59:20.003Z,81.06
2018-04-17T05:59:45.442Z,81.35
2018-04-17T06:00:10.950Z,81.15
2018-04-17T06:00:36.604Z,81.44
2018-04-17T06:01:02.084Z,80.77
2018-04-17T06:01:27.613Z,80.91
2018-04-17T06:01:53.125Z,80.91
2018-04-17T06:02:18.751Z,80.81
2018-04-17T06:02:44.196Z,80.81
2018-04-17T06:03:09.630Z,80.91
2018-04-17T06:03:35.096Z,80.53
2018-04-17T06:04:00.580Z,80.81
2018-04-17T06:04:26.002Z,80.72
2018-04-17T06:04:51.489Z,80.81
2018-04-17T06:05:17.187Z,80.53
2018-04-17T06:05:42.606Z,80.81
2018-04-17T06:06:08.098Z,80.43
2018-04-17T06:06:33.609Z,80.24
2018-04-17T06:06:59.059Z,80.24
2018-04-17T06:07:24.515Z,80.05
2018-04-17T06:07:50.048Z,80.05
2018-04-17T06:08:15.566Z,80.15
2018-04-17T06:08:40.996Z,80.05
2018-04-17T06:09:06.400Z,80.33
2018-04-17T06:09:31.955Z,80.33
2018-04-17T06:09:57.448Z,79.96
2018-04-17T06:10:23.102Z,80.05
2018-04-17T06:10:48.556Z,79.86
2018-04-17T06:11:14.056Z,80.38
2018-04-17T06:11:39.623Z,80.05
2018-04-17T06:12:05.035Z,80.33
2018-04-17T06:12:30.563Z,79.67
2018-04-17T06:12:56.043Z,79.52
2018-04-17T06:13:21.544Z,79.71
2018-04-17T06:13:47.065Z,79.61
2018-04-17T06:14:12.718Z,79.9
2018-04-17T06:14:38.173Z,79.8
2018-04-17T06:15:03.778Z,79.71
2018-04-17T06:15:29.153Z,79.33
2018-04-17T06:15:54.737Z,79.23
2018-04-17T06:16:20.235Z,78.75
2018-04-17T06:16:46.119Z,78.66
2018-04-17T06:17:11.749Z,78.56
2018-04-17T06:17:37.165Z,78.47
2018-04-17T06:18:02.633Z,77.99
2018-04-17T06:18:28.433Z,78.28
2018-04-17T06:18:54.030Z,78.66
2018-04-17T06:19:19.488Z,78.18
2018-04-17T06:19:45.169Z,77.99
2018-04-17T06:20:11.074Z,77.89
2018-04-17T06:20:36.577Z,77.89
2018-04-17T06:21:02.036Z,78.66
2018-04-17T06:21:27.457Z,78.66
2018-04-17T06:21:52.964Z,78.47
2018-04-17T06:22:18.433Z,78.66
2018-04-17T06:22:43.917Z,78.56
2018-04-17T06:23:09.349Z,78.31
2018-04-17T06:23:34.914Z,78.22
2018-04-17T06:24:00.576Z,78.22
2018-04-17T06:24:26.007Z,77.55
2018-04-17T06:24:51.443Z,77.42
2018-04-17T06:25:16.839Z,77.42
2018-04-17T06:25:42.373Z,77.42
2018-04-17T06:26:07.863Z,76.98
2018-04-17T06:26:33.328Z,77.36
2018-04-17T06:26:58.917Z,76.88
2018-04-17T06:27:25.335Z,76.98
2018-04-17T06:27:50.854Z,76.6
2018-04-17T06:28:16.476Z,77.08
2018-04-17T06:28:41.966Z,77.26
2018-04-17T06:29:07.338Z,76.88
2018-04-17T06:29:33.011Z,76.69
2018-04-17T06:29:58.387Z,76.12
2018-04-17T06:30:23.904Z,76.12
2018-04-17T06:30:49.425Z,75.93
2018-04-17T06:31:14.927Z,76.31
2018-04-17T06:31:40.389Z,76.98
2018-04-17T06:32:06.191Z,76.21
2018-04-17T06:32:31.778Z,77.26
2018-04-17T06:32:57.229Z,76.98
2018-04-17T06:33:22.992Z,76.03
2018-04-17T06:33:48.676Z,75.93
2018-04-17T06:34:14.545Z,76.21
2018-04-17T06:34:40.380Z,76.12
2018-04-17T06:35:06.058Z,75.83
2018-04-17T06:35:31.709Z,75.83
2018-04-17T06:35:57.621Z,76.03
2018-04-17T06:36:23.143Z,75.93
2018-04-17T06:36:48.787Z,76.12
2018-04-17T06:37:14.447Z,75.26
2018-04-17T06:37:40.116Z,75.26
2018-04-17T06:38:06.363Z,75.26
2018-04-17T06:38:31.915Z,75.35
2018-04-17T06:38:57.409Z,75.45
2018-04-17T06:39:22.905Z,75.45
2018-04-17T06:39:48.408Z,76.21
2018-04-17T06:40:13.939Z,76.03
2018-04-17T06:40:39.389Z,75.16
2018-04-17T06:41:04.892Z,75.26
2018-04-17T06:41:30.366Z,75.26
2018-04-17T06:41:55.931Z,75.16
2018-04-17T06:42:21.360Z,75.35
2018-04-17T06:42:46.854Z,75.26
2018-04-17T06:43:12.350Z,75.45
2018-04-17T06:43:37.849Z,75.45
2018-04-17T06:44:03.330Z,75.74
2018-04-17T06:44:28.823Z,75.64
2018-04-17T06:44:54.353Z,75.39
2018-04-17T06:45:19.867Z,75.78
2018-04-17T06:45:45.363Z,75.39
2018-04-17T06:46:10.925Z,75.2
2018-04-17T06:46:36.412Z,75.59
2018-04-17T06:47:02.090Z,75.68
2018-04-17T06:47:27.667Z,75.59
2018-04-17T06:47:53.324Z,75.3
2018-04-17T06:48:18.836Z,75.59
2018-04-17T06:48:44.334Z,75.43
2018-04-17T06:49:09.808Z,75.59
2018-04-17T06:49:35.299Z,74.91
2018-04-17T06:50:00.803Z,75.14
2018-04-17T06:50:26.315Z,74.48
2018-04-17T06:50:51.802Z,74.66
2018-04-17T06:51:17.510Z,74.85
2018-04-17T06:51:43.003Z,74.48
2018-04-17T06:52:08.599Z,74.09
2018-04-17T06:52:34.123Z,74.05
2018-04-17T06:52:59.773Z,74.19
2018-04-17T06:53:25.277Z,73.96
2018-04-17T06:53:50.746Z,74.34
2018-04-17T06:54:16.230Z,74.24
2018-04-17T06:54:41.712Z,74.15
2018-04-17T06:55:07.202Z,74.63
2018-04-17T06:55:32.688Z,74.63
2018-04-17T06:55:58.336Z,74.44
2018-04-17T06:56:23.863Z,74.34
2018-04-17T06:56:49.325Z,74.66
2018-04-17T06:57:14.829Z,74.82
2018-04-17T06:57:40.317Z,74.44
2018-04-17T06:58:05.821Z,74.53
2018-04-17T06:58:31.328Z,74.34
2018-04-17T06:58:56.814Z,74.85
2018-04-17T06:59:22.322Z,74.28
2018-04-17T06:59:47.808Z,74.66
2018-04-17T07:00:13.295Z,74.48
2018-04-17T07:00:38.776Z,74.38
2018-04-17T07:01:04.238Z,74.66
2018-04-17T07:01:29.708Z,74.38
2018-04-17T07:01:55.214Z,74.66
2018-04-17T07:02:20.949Z,74.66
2018-04-17T07:02:46.401Z,74.66
2018-04-17T07:03:11.904Z,74.19
2018-04-17T07:03:37.395Z,74.95
2018-04-17T07:04:02.876Z,74.66
2018-04-17T07:04:28.355Z,74.48
2018-04-17T07:04:53.891Z,74.76
2018-04-17T07:05:19.403Z,74.57
2018-04-17T07:05:44.848Z,74.85
2018-04-17T07:06:10.370Z,74.66
2018-04-17T07:06:35.877Z,74.48
2018-04-17T07:07:01.375Z,74.19
2018-04-17T07:07:26.845Z,74.19
2018-04-17T07:07:52.387Z,74.22
2018-04-17T07:08:17.880Z,74.19
2018-04-17T07:08:43.366Z,73.9
2018-04-17T07:09:08.890Z,73.61
2018-04-17T07:09:34.390Z,73.94
2018-04-17T07:09:59.885Z,74.22
2018-04-17T07:10:25.370Z,74.22
2018-04-17T07:10:50.860Z,73.84
2018-04-17T07:11:16.332Z,73.75
2018-04-17T07:11:41.921Z,73.65
2018-04-17T07:12:07.362Z,73.75
2018-04-17T07:12:32.859Z,73.75
2018-04-17T07:12:58.383Z,73.84
2018-04-17T07:13:23.957Z,73.36
2018-04-17T07:13:49.506Z,72.88
2018-04-17T07:14:15.002Z,72.79
2018-04-17T07:14:40.482Z,72.31
2018-04-17T07:15:06.000Z,72.6
2018-04-17T07:15:31.518Z,72.69
2018-04-17T07:15:57.002Z,72.79
2018-04-17T07:16:22.515Z,72.88
2018-04-17T07:16:47.996Z,72.88
2018-04-17T07:17:13.527Z,72.92
2018-04-17T07:17:39.015Z,72.88
2018-04-17T07:18:04.505Z,72.92
2018-04-17T07:18:30.004Z,72.92
2018-04-17T07:18:55.509Z,72.92
2018-04-17T07:19:21.015Z,72.92
2018-04-17T07:19:46.510Z,72.92
2018-04-17T07:20:11.996Z,72.92
2018-04-17T07:20:37.516Z,72.73
2018-04-17T07:21:03.015Z,72.54
2018-04-17T07:22:16.371Z,72.06
2018-04-17T07:22:41.880Z,72.16
2018-04-17T07:23:07.378Z,72.06
2018-04-17T07:23:32.867Z,72.16
2018-04-17T07:23:58.374Z,72.06
2018-04-17T07:24:23.851Z,71.68
2018-04-17T07:24:49.363Z,72.34
2018-04-17T07:25:14.844Z,72.25
2018-04-17T07:25:40.341Z,72.06
2018-04-17T07:26:05.837Z,72.16
2018-04-17T07:26:31.382Z,72.29
2018-04-17T07:26:56.919Z,72.09
2018-04-17T07:27:22.385Z,72.29
2018-04-17T07:27:47.896Z,72.29
2018-04-17T07:28:13.375Z,71.91
2018-04-17T07:28:38.876Z,71.81
2018-04-17T07:29:04.369Z,71.62
2018-04-17T07:29:29.909Z,71.33
2018-04-17T07:29:55.414Z,71.14
2018-04-17T07:30:20.875Z,71.14
2018-04-17T07:30:46.391Z,70.95
2018-04-17T07:31:11.866Z,71.33
2018-04-17T07:31:37.356Z,71.23
2018-04-17T07:32:02.852Z,71.23
2018-04-17T07:32:28.339Z,71.04
2018-04-17T07:32:53.863Z,71.04
2018-04-17T07:33:19.342Z,70.85
2018-04-17T07:33:44.866Z,70.76
2018-04-17T07:34:10.363Z,70.47
2018-04-17T07:34:35.915Z,70.66
2018-04-17T07:35:01.361Z,70.47
2018-04-17T07:35:26.860Z,70.85
2018-04-17T07:35:52.348Z,71.14
2018-04-17T07:36:17.828Z,71.04
2018-04-17T07:36:43.351Z,70.37
2018-04-17T07:37:08.863Z,70.66
2018-04-17T07:37:34.343Z,70.37
2018-04-17T07:37:59.840Z,70.18
2018-04-17T07:38:25.313Z,70.28
2018-04-17T07:38:50.797Z,70.56
2018-04-17T07:39:16.321Z,70.56
2018-04-17T07:39:41.837Z,70.85
2018-04-17T07:40:07.327Z,70.5
2018-04-17T07:40:32.839Z,70.03
2018-04-17T07:40:58.335Z,69.93
2018-04-17T07:41:23.827Z,70.12
2018-04-17T07:41:49.315Z,70.12
2018-04-17T07:42:14.801Z,70.12
2018-04-17T07:42:40.301Z,70.21
2018-04-17T07:43:05.792Z,70.6
2018-04-17T07:43:31.287Z,70.5
2018-04-17T07:43:56.805Z,70.31
2018-04-17T07:44:22.310Z,70.7
2018-04-17T07:44:47.783Z,70.7
2018-04-17T07:45:13.282Z,70.7
2018-04-17T07:45:38.775Z,70.41
2018-04-17T07:46:04.220Z,70.03
2018-04-17T07:46:29.716Z,69.93
2018-04-17T07:46:55.198Z,69.93
2018-04-17T07:47:20.695Z,70.12
2018-04-17T07:47:46.212Z,70.21
2018-04-17T07:48:11.662Z,69.45
2018-04-17T07:48:37.178Z,69.45
2018-04-17T07:49:02.652Z,69.48
2018-04-17T07:49:28.131Z,69.17
2018-04-17T07:49:53.652Z,69.01
2018-04-17T07:50:19.140Z,68.91
2018-04-17T07:50:44.626Z,69.48
2018-04-17T07:51:10.099Z,68.91
2018-04-17T07:51:35.599Z,69.1
2018-04-17T07:52:01.091Z,69.1
2018-04-17T07:52:26.584Z,69.1
2018-04-17T07:52:52.081Z,68.72
2018-04-17T07:53:17.574Z,68.81
2018-04-17T07:53:43.042Z,68.72
2018-04-17T07:54:08.584Z,68.81
2018-04-17T07:54:34.070Z,68.33
2018-04-17T07:54:59.543Z,68.37
2018-04-17T07:55:25.025Z,68.37
2018-04-17T07:55:50.514Z,68.33
2018-04-17T07:56:16.041Z,67.99
2018-04-17T07:56:41.541Z,68.37
2018-04-17T07:57:07.056Z,67.89
2018-04-17T07:57:32.567Z,67.32
2018-04-17T07:57:58.081Z,67.6
2018-04-17T07:58:23.550Z,67.79
2018-04-17T07:58:49.039Z,66.74
2018-04-17T07:59:14.528Z,67.32
2018-04-17T07:59:40.012Z,66.45
2018-04-17T08:00:05.512Z,67.02
2018-04-17T08:00:30.951Z,66.83
2018-04-17T08:00:56.420Z,67.5
2018-04-17T08:01:21.922Z,67.32
2018-04-17T08:01:47.419Z,67.5
2018-04-17T08:02:12.897Z,67.5
2018-04-17T08:02:38.400Z,67.6
2018-04-17T08:03:03.853Z,67.5
2018-04-17T08:03:29.344Z,67.32
2018-04-17T08:03:54.855Z,67.12
2018-04-17T08:04:20.374Z,67.41
2018-04-17T08:04:45.869Z,67.02
2018-04-17T08:05:11.368Z,66.83
2018-04-17T08:05:36.809Z,66.83
2018-04-17T08:06:02.337Z,67.41
2018-04-17T08:06:27.832Z,67.5
2018-04-17T08:06:53.318Z,67.69
2018-04-17T08:07:18.803Z,67.69
2018-04-17T08:07:44.308Z,67.41
2018-04-17T08:08:09.832Z,67.12
2018-04-17T08:08:35.360Z,67.12
2018-04-17T08:09:00.880Z,67.32
2018-04-17T08:09:26.394Z,66.83
2018-04-17T08:09:51.917Z,66.64
2018-04-17T08:10:17.386Z,66.45
2018-04-17T08:10:42.883Z,66.26
2018-04-17T08:11:08.355Z,65.68
2018-04-17T08:11:33.877Z,66
2018-04-17T08:11:59.408Z,65.91
2018-04-17T08:12:24.850Z,65.62
2018-04-17T08:12:50.365Z,64.85
2018-04-17T08:13:15.850Z,64.85
2018-04-17T08:13:41.426Z,65.43
2018-04-17T08:14:06.954Z,65.43
2018-04-17T08:14:32.460Z,65.81
2018-04-17T08:14:58.035Z,65.72
2018-04-17T08:15:23.642Z,65.05
2018-04-17T08:15:49.167Z,64.56
2018-04-17T08:16:14.726Z,64.47
2018-04-17T08:16:40.339Z,64.37
2018-04-17T08:17:05.873Z,64.09
2018-04-17T08:17:31.455Z,64.28
2018-04-17T08:17:57.227Z,64.85
2018-04-17T08:18:22.761Z,64.47
2018-04-17T08:18:48.340Z,64.09
2018-04-17T08:19:13.891Z,64.47
2018-04-17T08:19:39.462Z,64.28
2018-04-17T08:20:05.029Z,63.79
2018-04-17T08:20:30.684Z,64.18
2018-04-17T08:20:56.287Z,63.89
2018-04-17T08:21:54.863Z,64.02
2018-04-17T08:22:20.431Z,63.54
2018-04-17T08:22:46.024Z,63.45
2018-04-17T08:23:11.614Z,63.54
2018-04-17T08:23:37.264Z,63.25
2018-04-17T08:24:02.855Z,63.06
2018-04-17T08:24:28.452Z,63.06
2018-04-17T08:24:54.039Z,62.48
2018-04-17T08:25:19.615Z,62.87
2018-04-17T08:25:45.280Z,62.68
2018-04-17T08:26:10.870Z,62.68
2018-04-17T08:26:36.494Z,62.96
2018-04-17T08:27:02.026Z,63.16
2018-04-17T08:27:27.590Z,62.58
2018-04-17T08:27:53.128Z,62.48
2018-04-17T08:28:18.734Z,62.48
2018-04-17T08:28:44.290Z,62.68
2018-04-17T08:29:10.005Z,62.68
2018-04-17T08:29:35.495Z,62.58
2018-04-17T08:30:01.071Z,62.77
2018-04-17T08:30:26.679Z,62.39
2018-04-17T08:30:52.249Z,62.68
2018-04-17T08:31:17.875Z,62.29
2018-04-17T08:31:43.490Z,61.81
2018-04-17T08:32:09.140Z,62.01
2018-04-17T08:32:34.807Z,62.39
2018-04-17T08:33:00.340Z,62.58
2018-04-17T08:33:25.987Z,62.68
2018-04-17T08:33:51.479Z,62.29
2018-04-17T08:34:17.188Z,61.91
2018-04-17T08:34:42.761Z,62.1
2018-04-17T08:35:08.500Z,61.91
2018-04-17T08:35:34.184Z,61.81
2018-04-17T08:35:59.736Z,62.1
2018-04-17T08:36:25.379Z,61.24
2018-04-17T08:36:51.049Z,61.05
2018-04-17T08:37:16.561Z,61.27
2018-04-17T08:37:42.222Z,60.95
2018-04-17T08:38:07.870Z,61.08
2018-04-17T08:38:33.453Z,60.69
2018-04-17T08:38:59.090Z,60.08
2018-04-17T08:39:24.622Z,60.47
2018-04-17T08:39:50.264Z,60.18
2018-04-17T08:40:15.890Z,60.47
2018-04-17T08:40:41.425Z,60.66
2018-04-17T08:41:07.142Z,60.66
2018-04-17T08:41:32.647Z,61.33
2018-04-17T08:41:58.323Z,61.27
2018-04-17T08:42:23.949Z,60.85
2018-04-17T08:42:49.853Z,61.43
2018-04-17T08:43:15.429Z,61.27
2018-04-17T08:43:40.961Z,61.46
2018-04-17T08:44:06.547Z,60.88
2018-04-17T08:44:32.164Z,60.11
2018-04-17T08:44:57.829Z,59.64
2018-04-17T08:45:23.326Z,60.02
2018-04-17T08:45:48.952Z,60.21
2018-04-17T08:46:14.510Z,59.83
2018-04-17T08:46:40.058Z,59.44
2018-04-17T08:47:05.569Z,59.92
2018-04-17T08:47:31.146Z,60.5
2018-04-17T08:47:56.743Z,60.6
2018-04-17T08:48:22.282Z,60.69
2018-04-17T08:48:47.837Z,60.4
2018-04-17T08:49:13.454Z,60.11
2018-04-17T08:49:39.073Z,59.34
2018-04-17T08:50:04.638Z,59.54
2018-04-17T08:50:30.264Z,59.06
2018-04-17T08:50:55.906Z,59.06
2018-04-17T08:51:21.423Z,58.2
2018-04-17T08:51:47.014Z,58.2
2018-04-17T08:52:12.684Z,58.29
2018-04-17T08:52:38.271Z,58.39
2018-04-17T08:53:03.863Z,58.67
2018-04-17T08:53:29.414Z,58.96
2018-04-17T08:53:54.993Z,58.87
2018-04-17T08:54:20.536Z,58.2
2018-04-17T08:54:46.154Z,58.2
2018-04-17T08:55:11.802Z,58.58
2018-04-17T08:55:37.433Z,58.58
2018-04-17T08:56:02.917Z,57.33
2018-04-17T08:56:28.552Z,57.52
2018-04-17T08:56:54.076Z,58.48
2018-04-17T08:57:19.613Z,58.48
2018-04-17T08:57:45.148Z,58.48
2018-04-17T08:58:10.675Z,58.29
2018-04-17T08:58:36.266Z,58.2
2018-04-17T08:59:01.847Z,58.39
2018-04-17T08:59:27.311Z,57.9
2018-04-17T08:59:52.911Z,58.39
2018-04-17T09:00:18.465Z,58.42
2018-04-17T09:00:44.013Z,58.99
2018-04-17T09:01:09.541Z,58.89
2018-04-17T09:01:35.064Z,58.61
2018-04-17T09:02:00.606Z,58.7
2018-04-17T09:02:26.168Z,58.51
2018-04-17T09:02:51.721Z,58.22
2018-04-17T09:03:17.298Z,57.75
2018-04-17T09:03:42.877Z,58.03
2018-04-17T09:04:08.451Z,58.61
2018-04-17T09:04:33.921Z,57.84
2018-04-17T09:04:59.515Z,57.77
2018-04-17T09:05:25.046Z,57.2
2018-04-17T09:06:33.835Z,57
2018-04-17T09:06:59.352Z,56.52
2018-04-17T09:08:07.609Z,56.33
2018-04-17T09:08:33.110Z,55.85
2018-04-17T09:08:58.663Z,55.85
2018-04-17T09:09:24.222Z,55.85
2018-04-17T09:09:49.880Z,55.85
2018-04-17T09:10:15.410Z,54.89
2018-04-17T09:10:40.959Z,54.22
2018-04-17T09:11:06.577Z,54.31
2018-04-17T09:11:32.129Z,54.02
2018-04-17T09:11:57.810Z,54.12
2018-04-17T09:12:23.293Z,54.12
2018-04-17T09:12:48.860Z,54.12
2018-04-17T09:13:14.488Z,54.22
2018-04-17T09:13:40.129Z,54.89
2018-04-17T09:14:05.610Z,54.79
2018-04-17T09:14:31.105Z,54.89
2018-04-17T09:14:56.677Z,55.08
2018-04-17T09:15:22.393Z,54.99
2018-04-17T09:15:47.970Z,55.56
2018-04-17T09:16:13.508Z,55.66
2018-04-17T09:16:39.173Z,55.27
2018-04-17T09:17:04.756Z,55.76
2018-04-17T09:17:30.375Z,56.33
2018-04-17T09:17:55.955Z,55.66
2018-04-17T09:18:21.559Z,55.88
2018-04-17T09:18:47.187Z,55.85
2018-04-17T09:19:12.662Z,55.3
2018-04-17T09:19:38.311Z,55.4
2018-04-17T09:20:03.952Z,56.16
2018-04-17T09:20:29.479Z,55.01
2018-04-17T09:20:55.223Z,55.01
2018-04-17T09:21:20.794Z,55.2
2018-04-17T09:21:46.469Z,55.11
2018-04-17T09:22:12.173Z,54.14
2018-04-17T09:22:37.835Z,53.86
2018-04-17T09:23:03.405Z,53.09
2018-04-17T09:23:29.015Z,51.84
2018-04-17T09:23:54.678Z,52.61
2018-04-17T09:24:20.367Z,52.7
2018-04-17T09:24:45.993Z,52.8
2018-04-17T09:25:11.562Z,52.61
2018-04-17T09:25:37.274Z,52.7
2018-04-17T09:26:02.891Z,52.51
2018-04-17T09:26:28.581Z,52.61
2018-04-17T09:26:54.327Z,52.89
2018-04-17T09:27:19.867Z,53.57
2018-04-17T09:27:45.575Z,53.57
2018-04-17T09:28:11.212Z,53.76
2018-04-17T09:28:36.838Z,54.14
2018-04-17T09:29:02.498Z,53.57
2018-04-17T09:29:28.029Z,53.09
2018-04-17T09:29:53.548Z,53.09
2018-04-17T09:30:19.086Z,53.28
2018-04-17T09:30:44.643Z,53.09
2018-04-17T09:31:10.254Z,53.19
2018-04-17T09:31:35.869Z,52.83
2018-04-17T09:32:01.522Z,52.25
2018-04-17T09:32:27.113Z,52.15
2018-04-17T09:32:52.643Z,51.29
2018-04-17T09:33:46.143Z,52.06
2018-04-17T09:34:11.735Z,51.67
2018-04-17T09:34:37.280Z,51.57
2018-04-17T09:35:02.830Z,51.09
2018-04-17T09:35:28.425Z,50.99
2018-04-17T09:35:54.148Z,51.48
2018-04-17T09:36:19.652Z,50.99
2018-04-17T09:36:45.234Z,51.19
2018-04-17T09:37:10.851Z,51.29
2018-04-17T09:37:36.443Z,50.9
2018-04-17T09:38:02.115Z,51.19
2018-04-17T09:38:27.783Z,51.09
2018-04-17T09:38:53.439Z,51.48
2018-04-17T09:39:19.169Z,50.99
2018-04-17T09:39:44.773Z,51.19
2018-04-17T09:40:10.287Z,51.38
2018-04-17T09:40:35.840Z,51.76
2018-04-17T09:41:01.395Z,51.57
2018-04-17T09:41:27.052Z,51.57
2018-04-17T09:41:52.630Z,51.57
2018-04-17T09:42:18.287Z,51.29